الصفحة الرئيسية
METAR-TAF:

METAR-TAF

مطار :

مطار بينظير بوتو الدولي

إسلام آباد, باكستان

دائرة عرض: 33-37N, خط طول: 073-06E, ارتفاع: 507 متر

مراقبة الطقس الحالي

تاريخ ووقت الإصدار 20 دقيقة قبل الساعة 12:00UTC
ريح 6 عقدة من الجنوب
درجة الحرارة 39°درجة مئوية
الرطوبة 28%
ضغط 1000 hPa
الرؤية 10 كم أو أكثر
غيوم متفرقة على ارتفاع 4000 قدم

METAR: OPRN 231200Z 18006KT 9999 SCT040 39/17 Q1000 NOSIG RMK A2955

زمن: 17:20 (12:20 UTC)

توقعات

تاريخ ووقت الإصدار 2ساعات و 50 دقيقة قبل الساعة 09:30UTC
التوقعات صالحة من23 الساعة 12 UTC إلى 24 الساعة 18 UTC
ريح 10 عقدة من الجنوب الغربي تتزايد حتى 20 عقدة
الرؤية 10 كم أو أكثر
الغيوم لا تقل 1500 م ولا وجود لمزنة ركامية السحاب الأسود
مؤقت
من 24 الساعة 00 UTC إلى 24 الساعة 06 UTC
الرؤية: 5000 متر
العجاج

TAF: OPRN 230930Z 2312/2418 23010G20KT CAVOK TEMPO 2400/2406 5000 HZ NSC

أرصاد الطقس والتوقعات من أكثر من 4000 مطار (تقارير الطقس للمطار METAR والتنبؤ بالطقس بالمطارTAF).

المحطات المتاحة هي النقط الصفراء والحمراء على الخريطة.

حرك المؤشر فوق النقطة لمعرفة اسم المحطة.

ثم انقر لمعرفة أرصاد وتوقعات الطقس.

لتغيير الخارطة: اضغط على الأزرار الخضراء مع رمز الصليب الأسود للتكبير. على الزر الأخضر مع شرطة للتصغير، أو على الأسهم الخضراء للخرائط المجاورة.


METAR-TAF: